Terminal Aerodrome Forecast
Issued by NWS Columbia, SC

Home | Current Version | Previous Version | Text Only | Print | Product List | Glossary On
Versions: 1 2 3 4 5 6 7 8 9 10 11 12 13 14 15 16 17 18 19 20 21 22 23 24 25 26 27 28 29 30 31 32 33 34 35 36 37 38 39 40 41 42
000
FTUS42 KCAE 042300
TAFAGS
TAF
KAGS 042338Z 0500/0524 22008KT P6SM BKN080
     FM050700 22008KT 2SM BR OVC003
     FM051400 24012G20KT P6SM OVC015
     FM051800 26015G22KT 4SM -SHRA OVC025
     FM052100 32010KT P6SM -RA OVC015=

USA.gov is the U.S. government's official web portal to all federal, state and local government web resources and services.